Allen, Maryland
Current Conditions -  °F | °C
As of 6:54 PM on Thursday 18 Dec 2014 (Local Time) from KSBY Reporting Station
Clear Clear  
Wind Chill: 33°   Ceiling: Unl
Heat Index: 37°   Visibility: 10mi
Dew Point: 24°   Wind: 5mph
Humidity: 59%   Direction: 310°NW
Pressure: 30.09"   Gusts: NA
Location:  38.29°N, 75.69°W
Report Text: KSBY 182354Z 31004KT 10SM CLR 03/M04 A3009 RMK AO2 SLP193 T00281044 10067 20022 53008
Loading
Personal Weather Stations






























Interactive Weather Map New forecast layout! Learn more

10-Day Weather Forecast

Advertisements
Track Severe Weather on mobile